createdAt,value
2023-02-14T00:01:20.632Z,31.10
2023-02-14T00:04:34.150Z,30.90
2023-02-14T00:07:39.789Z,30.42
2023-02-14T00:10:45.255Z,30.88
2023-02-14T00:14:03.711Z,28.65
2023-02-14T00:17:09.350Z,29.15
2023-02-14T00:20:13.720Z,35.65
2023-02-14T00:23:17.109Z,33.20
2023-02-14T00:26:22.067Z,25.83
2023-02-14T00:29:26.481Z,28.50
2023-02-14T00:32:32.115Z,27.10
2023-02-14T00:35:40.772Z,28.02
2023-02-14T00:38:44.131Z,29.45
2023-02-14T00:41:49.787Z,27.80
2023-02-14T00:44:53.568Z,30.33
2023-02-14T00:48:00.033Z,29.65
2023-02-14T00:51:04.231Z,30.88
2023-02-14T00:54:08.687Z,31.63
2023-02-14T00:57:14.158Z,30.60
2023-02-14T01:00:18.789Z,30.20
2023-02-14T01:03:23.263Z,32.10
2023-02-14T01:06:31.754Z,32.30
2023-02-14T01:09:35.283Z,30.73
2023-02-14T01:12:40.825Z,34.13
2023-02-14T01:15:45.574Z,30.90
2023-02-14T01:18:49.257Z,31.38
2023-02-14T01:21:53.633Z,29.75
2023-02-14T01:25:03.797Z,28.10
2023-02-14T01:28:09.087Z,32.00
2023-02-14T01:31:15.454Z,28.65
2023-02-14T01:34:18.902Z,28.35
2023-02-14T01:37:24.301Z,32.35
2023-02-14T01:40:29.340Z,28.45
2023-02-14T01:43:34.774Z,26.38
2023-02-14T01:46:38.988Z,26.13
2023-02-14T01:49:45.059Z,32.65
2023-02-14T01:52:49.369Z,35.42
2023-02-14T01:55:54.879Z,36.47
2023-02-14T01:59:04.364Z,29.33
2023-02-14T02:02:07.845Z,30.75
2023-02-14T02:05:12.928Z,35.28
2023-02-14T02:08:16.754Z,28.25
2023-02-14T02:11:20.954Z,28.48
2023-02-14T02:14:26.423Z,35.33
2023-02-14T02:17:35.053Z,33.45
2023-02-14T02:20:52.863Z,29.65
2023-02-14T02:24:02.979Z,33.45
2023-02-14T02:27:27.191Z,31.02
2023-02-14T02:30:41.294Z,33.53
2023-02-14T02:34:00.543Z,27.40
2023-02-14T02:37:10.933Z,28.13
2023-02-14T02:40:23.983Z,27.27
2023-02-14T02:43:33.134Z,27.13
2023-02-14T02:46:48.952Z,30.52
2023-02-14T02:50:14.242Z,32.83
2023-02-14T02:53:23.363Z,32.00
2023-02-14T02:56:47.354Z,28.10
2023-02-14T02:59:52.412Z,30.45
2023-02-14T03:03:24.320Z,31.08
2023-02-14T03:06:28.442Z,27.25
2023-02-14T03:09:51.036Z,32.17
2023-02-14T03:13:10.123Z,28.27
2023-02-14T03:16:27.555Z,24.73
2023-02-14T03:20:10.663Z,29.63
2023-02-14T03:23:17.641Z,28.70
2023-02-14T03:26:23.896Z,27.45
2023-02-14T03:29:33.101Z,28.70
2023-02-14T03:32:41.137Z,32.05
2023-02-14T03:35:49.311Z,28.95
2023-02-14T03:38:56.213Z,28.00
2023-02-14T03:42:06.090Z,32.88
2023-02-14T03:45:12.508Z,30.23
2023-02-14T03:48:18.364Z,33.47
2023-02-14T03:51:23.161Z,31.85
2023-02-14T03:54:27.758Z,32.63
2023-02-14T03:57:34.069Z,28.30
2023-02-14T04:00:42.075Z,28.20
2023-02-14T04:03:47.427Z,26.80
2023-02-14T04:06:52.519Z,31.65
2023-02-14T04:09:56.106Z,31.38
2023-02-14T04:13:00.384Z,32.97
2023-02-14T04:16:03.970Z,31.98
2023-02-14T04:19:24.369Z,32.33
2023-02-14T04:22:27.655Z,29.88
2023-02-14T04:25:31.363Z,30.25
2023-02-14T04:28:34.786Z,30.17
2023-02-14T04:31:38.175Z,30.67
2023-02-14T04:34:42.962Z,34.63
2023-02-14T04:37:46.530Z,32.00
2023-02-14T04:40:51.680Z,30.00
2023-02-14T04:43:55.925Z,37.80
2023-02-14T04:47:04.038Z,32.28
2023-02-14T04:50:10.470Z,30.05
2023-02-14T04:53:15.064Z,31.15
2023-02-14T04:56:20.555Z,27.92
2023-02-14T04:59:25.095Z,29.83
2023-02-14T05:02:29.639Z,28.27
2023-02-14T05:05:34.401Z,28.73
2023-02-14T05:08:37.869Z,33.95
2023-02-14T05:11:41.209Z,28.20
2023-02-14T05:14:44.722Z,25.60
2023-02-14T05:17:48.232Z,35.33
2023-02-14T05:21:01.476Z,33.53
2023-02-14T05:24:17.516Z,28.73
2023-02-14T05:27:20.874Z,31.45
2023-02-14T05:30:27.750Z,26.88
2023-02-14T05:33:31.267Z,31.05
2023-02-14T05:36:38.020Z,28.65
2023-02-14T05:39:41.366Z,27.30
2023-02-14T05:42:46.536Z,29.50
2023-02-14T05:45:49.933Z,25.92
2023-02-14T05:48:53.218Z,27.25
2023-02-14T05:51:57.916Z,28.70
2023-02-14T05:55:02.254Z,33.78
2023-02-14T05:58:05.775Z,28.17
2023-02-14T06:01:10.072Z,27.95
2023-02-14T06:04:13.445Z,31.98
2023-02-14T06:07:22.056Z,31.13
2023-02-14T06:10:26.652Z,25.67
2023-02-14T06:13:30.202Z,29.40
2023-02-14T06:16:35.755Z,30.65
2023-02-14T06:19:40.036Z,27.08
2023-02-14T06:22:44.733Z,30.42
2023-02-14T06:25:48.165Z,29.58
2023-02-14T06:28:54.607Z,31.75
2023-02-14T06:31:58.674Z,28.85
2023-02-14T06:35:03.478Z,31.98
2023-02-14T06:38:10.098Z,30.48
2023-02-14T06:41:17.041Z,28.50
2023-02-14T06:44:22.081Z,32.88
2023-02-14T06:47:25.721Z,29.40
2023-02-14T06:50:29.295Z,26.38
2023-02-14T06:53:36.028Z,30.33
2023-02-14T06:56:42.250Z,40.05
2023-02-14T06:59:46.517Z,30.83
2023-02-14T07:02:49.849Z,31.05
2023-02-14T07:05:53.319Z,34.50
2023-02-14T07:08:58.083Z,34.17
2023-02-14T07:12:01.509Z,30.08
2023-02-14T07:15:04.877Z,34.05
2023-02-14T07:18:12.099Z,27.17
2023-02-14T07:21:16.084Z,32.65
2023-02-14T07:24:24.464Z,33.40
2023-02-14T07:27:28.607Z,28.55
2023-02-14T07:30:32.891Z,30.95
2023-02-14T07:33:36.330Z,30.88
2023-02-14T07:40:34.723Z,26.92
2023-02-14T07:48:26.199Z,32.55
2023-02-14T07:51:37.921Z,31.90
2023-02-14T07:54:44.026Z,39.70
2023-02-14T07:58:18.730Z,33.47
2023-02-14T08:01:23.509Z,30.25
2023-02-14T08:04:26.780Z,29.67
2023-02-14T08:07:30.084Z,27.10
2023-02-14T08:10:41.459Z,27.10
2023-02-14T08:14:13.772Z,33.13
2023-02-14T08:17:18.464Z,29.48
2023-02-14T08:20:43.612Z,35.67
2023-02-14T08:23:47.649Z,28.10
2023-02-14T08:26:53.616Z,33.63
2023-02-14T08:44:44.004Z,23.45
2023-02-14T09:20:38.263Z,20.00
2023-02-14T09:23:43.701Z,19.48
2023-02-14T09:26:50.989Z,18.42
2023-02-14T09:29:54.434Z,23.73
2023-02-14T09:33:00.121Z,22.23
2023-02-14T09:36:22.656Z,25.13
2023-02-14T09:39:28.978Z,19.45
2023-02-14T09:42:41.423Z,19.52
2023-02-14T09:45:51.552Z,18.13
2023-02-14T09:48:55.842Z,20.88
2023-02-14T09:52:21.385Z,23.27
2023-02-14T09:55:30.970Z,21.60
2023-02-14T09:58:38.651Z,18.50
2023-02-14T10:02:10.859Z,21.77
2023-02-14T10:05:23.898Z,20.20
2023-02-14T10:08:33.087Z,18.40
2023-02-14T10:11:52.887Z,17.35
2023-02-14T10:18:52.516Z,22.83
2023-02-14T10:22:31.026Z,20.23
2023-02-14T10:25:39.588Z,19.20
2023-02-14T10:28:59.580Z,18.23
2023-02-14T10:32:45.240Z,20.48
2023-02-14T10:36:03.057Z,22.20
2023-02-14T10:39:27.522Z,21.63
2023-02-14T10:56:44.591Z,18.50
2023-02-14T10:59:52.388Z,22.45
2023-02-14T11:02:58.429Z,19.73
2023-02-14T11:06:02.018Z,17.95
2023-02-14T11:09:06.792Z,22.77
2023-02-14T11:12:10.406Z,21.73
2023-02-14T11:15:21.788Z,21.83
2023-02-14T11:18:31.669Z,22.17
2023-02-14T11:21:39.093Z,20.13
2023-02-14T11:24:45.870Z,22.52
2023-02-14T11:27:51.041Z,25.90
2023-02-14T11:30:55.128Z,18.75
2023-02-14T11:33:58.761Z,23.73
2023-02-14T11:37:02.256Z,23.48
2023-02-14T11:40:08.031Z,18.25
2023-02-14T11:43:22.042Z,19.10
2023-02-14T11:46:30.532Z,22.30
2023-02-14T11:49:35.986Z,21.15
2023-02-14T11:52:41.503Z,18.95
2023-02-14T11:55:46.530Z,20.65
2023-02-14T11:58:51.582Z,22.63
2023-02-14T12:01:55.614Z,18.30
2023-02-14T12:05:00.612Z,22.23
2023-02-14T12:08:05.094Z,22.10
2023-02-14T12:11:20.323Z,24.55
2023-02-14T12:14:24.690Z,22.58
2023-02-14T12:17:32.926Z,16.38
2023-02-14T12:20:39.868Z,22.55
2023-02-14T12:23:45.818Z,21.25
2023-02-14T12:26:52.883Z,22.27
2023-02-14T12:30:01.274Z,23.58
2023-02-14T12:33:06.096Z,21.42
2023-02-14T12:36:12.622Z,16.25
2023-02-14T12:39:20.708Z,17.85
2023-02-14T12:42:34.996Z,18.95
2023-02-14T12:45:48.912Z,26.58
2023-02-14T12:49:00.046Z,21.85
2023-02-14T12:52:11.858Z,19.85
2023-02-14T12:55:25.240Z,21.67
2023-02-14T12:58:39.062Z,22.10
2023-02-14T13:01:52.405Z,21.23
2023-02-14T13:05:01.906Z,18.23
2023-02-14T13:08:13.557Z,21.85
2023-02-14T13:11:29.876Z,18.95
2023-02-14T13:14:45.630Z,21.23
2023-02-14T13:17:50.357Z,23.63
2023-02-14T13:20:55.407Z,22.25
2023-02-14T13:24:15.043Z,19.20
2023-02-14T13:27:22.293Z,21.55
2023-02-14T13:30:29.989Z,21.60
2023-02-14T13:33:36.347Z,20.20
2023-02-14T13:36:39.852Z,21.48
2023-02-14T13:39:44.893Z,19.90
2023-02-14T13:42:52.476Z,19.73
2023-02-14T13:45:57.801Z,20.35
2023-02-14T13:49:02.198Z,17.10
2023-02-14T13:52:06.560Z,21.67
2023-02-14T13:55:16.241Z,19.40
2023-02-14T13:58:21.601Z,27.17
2023-02-14T14:01:38.982Z,21.80
2023-02-14T14:04:42.446Z,20.02
2023-02-14T14:07:45.892Z,21.88
2023-02-14T14:10:50.122Z,22.48
2023-02-14T14:13:56.669Z,18.00
2023-02-14T14:17:02.314Z,19.35
2023-02-14T14:20:06.806Z,21.25
2023-02-14T14:23:40.271Z,23.40
2023-02-14T14:26:45.828Z,18.02
2023-02-14T14:29:50.577Z,23.25
2023-02-14T14:32:55.498Z,22.63
2023-02-14T14:36:00.490Z,18.13
2023-02-14T14:39:05.264Z,19.58
2023-02-14T14:42:10.017Z,18.92
2023-02-14T14:45:21.515Z,21.85
2023-02-14T14:48:29.812Z,18.88
2023-02-14T14:51:36.094Z,26.42
2023-02-14T14:54:41.950Z,15.88
2023-02-14T14:57:50.009Z,22.73
2023-02-14T15:00:53.678Z,23.55
2023-02-14T15:04:11.781Z,19.38
2023-02-14T15:07:20.893Z,23.80
2023-02-14T15:10:25.474Z,19.05
2023-02-14T15:13:53.561Z,18.10
2023-02-14T15:16:59.410Z,19.05
2023-02-14T15:20:06.609Z,18.52
2023-02-14T15:23:18.378Z,21.85
2023-02-14T15:26:24.773Z,19.73
2023-02-14T15:29:29.476Z,20.20
2023-02-14T15:32:34.303Z,22.02
2023-02-14T15:35:42.396Z,21.02
2023-02-14T15:38:45.976Z,18.17
2023-02-14T15:41:49.478Z,20.90
2023-02-14T15:44:52.936Z,20.08
2023-02-14T15:47:57.253Z,22.30
2023-02-14T15:51:05.001Z,21.25
2023-02-14T15:54:09.633Z,25.40
2023-02-14T15:57:20.225Z,19.27
2023-02-14T16:00:25.621Z,23.60
2023-02-14T16:03:35.756Z,19.15
2023-02-14T16:06:44.383Z,18.15
2023-02-14T16:09:48.065Z,23.08
2023-02-14T16:13:04.242Z,20.50
2023-02-14T16:16:09.212Z,20.95
2023-02-14T16:19:32.726Z,21.05
2023-02-14T16:22:38.446Z,20.35
2023-02-14T16:25:42.476Z,22.52
2023-02-14T16:28:45.885Z,21.27
2023-02-14T16:35:18.048Z,21.02
2023-02-14T16:38:23.519Z,21.20
2023-02-14T16:41:27.798Z,18.45
2023-02-14T16:44:32.250Z,21.88
2023-02-14T16:47:35.691Z,15.93
2023-02-14T16:50:40.370Z,18.35
2023-02-14T16:53:45.484Z,22.83
2023-02-14T16:56:52.863Z,20.65
2023-02-14T16:59:56.335Z,20.63
2023-02-14T17:03:07.348Z,17.58
2023-02-14T17:06:11.661Z,22.45
2023-02-14T17:09:18.525Z,25.70
2023-02-14T17:12:23.593Z,24.55
2023-02-14T17:15:28.376Z,24.30
2023-02-14T17:18:32.362Z,22.45
2023-02-14T17:21:36.049Z,28.10
2023-02-14T17:24:41.389Z,33.13
2023-02-14T17:27:46.203Z,31.00
2023-02-14T17:30:49.672Z,20.83
2023-02-14T17:33:53.345Z,24.60
2023-02-14T17:36:56.824Z,28.60
2023-02-14T17:40:06.001Z,26.55
2023-02-14T17:43:09.918Z,18.17
2023-02-14T17:46:14.290Z,20.52
2023-02-14T17:49:18.257Z,18.58
2023-02-14T17:52:23.906Z,24.40
2023-02-14T17:55:30.084Z,24.85
2023-02-14T17:58:33.538Z,22.58
2023-02-14T18:01:37.145Z,20.92
2023-02-14T18:04:40.798Z,21.27
2023-02-14T18:07:44.244Z,25.33
2023-02-14T18:10:50.333Z,21.73
2023-02-14T18:13:55.971Z,23.65
2023-02-14T18:16:59.765Z,22.70
2023-02-14T18:20:05.248Z,20.42
2023-02-14T18:23:09.489Z,20.27
2023-02-14T18:26:16.130Z,21.75
2023-02-14T18:29:20.256Z,19.50
2023-02-14T18:32:24.364Z,20.23
2023-02-14T18:35:28.718Z,24.20
2023-02-14T18:38:32.435Z,20.50
2023-02-14T18:41:38.186Z,19.48
2023-02-14T18:44:41.764Z,19.45
2023-02-14T18:47:45.301Z,22.27
2023-02-14T18:50:49.574Z,20.95
2023-02-14T18:53:54.555Z,21.85
2023-02-14T18:56:59.502Z,24.15
2023-02-14T19:00:07.290Z,20.48
2023-02-14T19:03:11.178Z,23.95
2023-02-14T19:06:14.788Z,22.85
2023-02-14T19:09:18.732Z,25.50
2023-02-14T19:12:25.074Z,23.75
2023-02-14T19:15:28.999Z,20.08
2023-02-14T19:18:32.454Z,22.50
2023-02-14T19:21:37.046Z,24.83
2023-02-14T19:24:41.345Z,21.15
2023-02-14T19:27:46.393Z,23.02
2023-02-14T19:30:50.385Z,24.58
2023-02-14T19:33:54.266Z,22.55
2023-02-14T19:36:59.504Z,21.95
2023-02-14T19:40:03.065Z,26.23
2023-02-14T19:43:07.983Z,19.38
2023-02-14T19:46:11.418Z,25.98
2023-02-14T19:49:16.288Z,30.15
2023-02-14T19:52:26.441Z,22.67
2023-02-14T19:55:30.122Z,27.10
2023-02-14T19:58:35.220Z,25.20
2023-02-14T20:01:41.806Z,25.92
2023-02-14T20:04:45.854Z,23.95
2023-02-14T20:07:51.821Z,29.05
2023-02-14T20:10:55.594Z,26.20
2023-02-14T20:14:05.026Z,23.60
2023-02-14T20:17:08.695Z,20.42
2023-02-14T20:20:13.794Z,21.70
2023-02-14T20:23:18.421Z,27.52
2023-02-14T20:26:22.042Z,27.42
2023-02-14T20:29:27.032Z,23.13
2023-02-14T20:32:30.628Z,23.05
2023-02-14T20:35:38.251Z,24.08
2023-02-14T20:38:41.846Z,25.83
2023-02-14T20:41:49.774Z,25.75
2023-02-14T20:44:55.437Z,25.13
2023-02-14T20:48:03.192Z,26.63
2023-02-14T20:51:11.124Z,23.70
2023-02-14T20:54:14.730Z,27.50
2023-02-14T20:57:18.359Z,24.08
2023-02-14T21:00:25.540Z,25.30
2023-02-14T21:03:32.148Z,23.33
2023-02-14T21:06:38.973Z,27.42
2023-02-14T21:09:43.391Z,26.38
2023-02-14T21:12:48.327Z,22.38
2023-02-14T21:15:54.300Z,25.75
2023-02-14T21:18:59.799Z,31.20
2023-02-14T21:22:03.259Z,30.45
2023-02-14T21:25:07.513Z,32.13
2023-02-14T21:28:11.113Z,31.27
2023-02-14T21:31:17.252Z,33.03
2023-02-14T21:34:20.725Z,41.28
2023-02-14T21:37:24.172Z,31.33
2023-02-14T21:40:27.494Z,30.73
2023-02-14T21:43:30.792Z,26.85
2023-02-14T21:46:37.132Z,24.27
2023-02-14T21:49:58.356Z,19.02
2023-02-14T21:53:02.372Z,19.38
2023-02-14T21:56:07.142Z,21.92
2023-02-14T21:59:10.633Z,26.25
2023-02-14T22:02:15.368Z,24.83
2023-02-14T22:05:18.996Z,21.83
2023-02-14T22:08:22.290Z,22.23
2023-02-14T22:11:26.607Z,31.77
2023-02-14T22:14:30.054Z,26.02
2023-02-14T22:17:35.563Z,24.73
2023-02-14T22:20:39.914Z,27.80
2023-02-14T22:23:44.576Z,24.58
2023-02-14T22:26:47.824Z,23.45
2023-02-14T22:29:51.220Z,27.70
2023-02-14T22:32:57.189Z,27.48
2023-02-14T22:36:02.299Z,23.23
2023-02-14T22:39:06.717Z,28.73
2023-02-14T22:42:10.991Z,25.33
2023-02-14T22:45:14.489Z,26.25
2023-02-14T22:48:20.321Z,24.80
2023-02-14T22:51:24.758Z,23.33
2023-02-14T22:54:28.563Z,25.52
2023-02-14T22:57:32.776Z,22.92
2023-02-14T23:00:36.257Z,24.13
2023-02-14T23:03:41.319Z,20.48
2023-02-14T23:06:44.726Z,21.02
2023-02-14T23:09:48.441Z,22.13
2023-02-14T23:13:09.713Z,24.63
2023-02-14T23:16:30.598Z,20.40
2023-02-14T23:19:53.986Z,17.73
2023-02-14T23:22:57.377Z,19.77
2023-02-14T23:26:01.473Z,20.65
2023-02-14T23:29:05.166Z,25.52
2023-02-14T23:32:09.472Z,24.73
2023-02-14T23:35:14.303Z,20.85
2023-02-14T23:38:17.785Z,26.85
2023-02-14T23:41:47.227Z,28.67
2023-02-14T23:44:50.588Z,23.23
2023-02-14T23:47:53.959Z,22.25
2023-02-14T23:51:01.889Z,25.42
2023-02-14T23:54:05.648Z,25.50
2023-02-14T23:57:09.642Z,25.67
